Terminal Aerodrome Forecast
Issued by NWS

Home | Current Version | Previous Version | Text Only | Print | Product List | Glossary On
Versions: 1 2 3 4 5 6 7 8 9 10 11 12 13 14 15 16 17 18 19 20 21 22 23 24 25
794
FTUS41 KPBZ 181848 AAA
TAFAGC
TAF AMD
KAGC 181848Z 1819/1918 17011KT 5SM -SHRA OVC035 WS020/21040KT
     FM190000 19011G19KT 3SM SHRA BR OVC030
     FM190600 27018G39KT 5SM -SHRASN OVC015
     FM191000 28015G28KT P6SM VCSH OVC015=

USA.gov is the U.S. government's official web portal to all federal, state and local government web resources and services.